createdAt,value
2019-06-15T00:01:56.559Z,98708.39
2019-06-15T00:04:30.040Z,98706.56
2019-06-15T00:07:03.585Z,98684.60
2019-06-15T00:09:37.786Z,98688.60
2019-06-15T00:12:11.316Z,98687.97
2019-06-15T00:14:44.710Z,98694.48
2019-06-15T00:17:19.090Z,98700.02
2019-06-15T00:19:53.989Z,98715.73
2019-06-15T00:22:27.270Z,98731.93
2019-06-15T00:25:00.419Z,98707.83
2019-06-15T00:27:34.080Z,98739.58
2019-06-15T00:30:09.040Z,98744.57
2019-06-15T00:32:42.629Z,98721.70
2019-06-15T00:35:17.121Z,98746.13
2019-06-15T00:37:49.817Z,98777.64
2019-06-15T00:40:23.036Z,98792.95
2019-06-15T00:42:55.585Z,98773.66
2019-06-15T00:45:29.153Z,98792.29
2019-06-15T00:48:02.377Z,98786.66
2019-06-15T00:50:35.933Z,98759.30
2019-06-15T00:53:09.673Z,98762.28
2019-06-15T00:55:42.728Z,98759.85
2019-06-15T00:58:15.890Z,98754.88
2019-06-15T01:00:50.080Z,98750.59
2019-06-15T01:03:23.642Z,98741.64
2019-06-15T01:05:57.315Z,98738.03
2019-06-15T01:08:30.126Z,98716.94
2019-06-15T01:11:03.405Z,98718.10
2019-06-15T01:13:37.065Z,98709.41
2019-06-15T01:16:10.309Z,98677.57
2019-06-15T01:18:43.094Z,98628.70
2019-06-15T01:21:17.281Z,98704.22
2019-06-15T01:23:50.773Z,98728.61
2019-06-15T01:26:24.483Z,98713.19
2019-06-15T01:28:57.836Z,98710.18
2019-06-15T01:31:31.301Z,98718.80
2019-06-15T01:34:04.583Z,98686.78
2019-06-15T01:36:37.634Z,98709.32
2019-06-15T01:39:11.449Z,98711.80
2019-06-15T01:41:44.791Z,98723.76
2019-06-15T01:44:18.269Z,98703.38
2019-06-15T01:46:53.215Z,98689.91
2019-06-15T01:49:26.069Z,98680.95
2019-06-15T01:51:59.350Z,98665.73
2019-06-15T01:54:32.995Z,98641.42
2019-06-15T01:57:07.732Z,98655.38
2019-06-15T01:59:40.781Z,98612.41
2019-06-15T02:02:13.987Z,98516.28
2019-06-15T02:04:47.295Z,98496.06
2019-06-15T02:07:20.780Z,98637.24
2019-06-15T02:09:54.145Z,98664.30
2019-06-15T02:12:27.689Z,98663.09
2019-06-15T02:15:01.032Z,98647.98
2019-06-15T02:17:34.183Z,98644.06
2019-06-15T02:20:07.967Z,98658.69
2019-06-15T02:22:40.969Z,98649.78
2019-06-15T02:25:14.351Z,98650.75
2019-06-15T02:27:48.078Z,98660.03
2019-06-15T02:30:28.288Z,98662.42
2019-06-15T02:33:02.401Z,98664.75
2019-06-15T02:35:35.884Z,98668.92
2019-06-15T02:38:09.645Z,98668.94
2019-06-15T02:40:42.918Z,98672.11
2019-06-15T02:43:16.043Z,98672.92
2019-06-15T02:45:48.958Z,98678.09
2019-06-15T02:48:22.338Z,98665.64
2019-06-15T02:50:55.503Z,98660.84
2019-06-15T02:53:29.757Z,98660.81
2019-06-15T02:56:03.507Z,98640.80
2019-06-15T02:58:37.071Z,98647.27
2019-06-15T03:01:10.914Z,98632.38
2019-06-15T03:03:44.131Z,98634.56
2019-06-15T03:06:18.248Z,98637.70
2019-06-15T03:08:52.129Z,98643.98
2019-06-15T03:11:25.662Z,98651.92
2019-06-15T03:14:00.427Z,98651.09
2019-06-15T03:16:34.086Z,98651.61
2019-06-15T03:19:07.084Z,98660.88
2019-06-15T03:21:40.685Z,98658.38
2019-06-15T03:24:13.781Z,98656.88
2019-06-15T03:26:47.342Z,98659.86
2019-06-15T03:29:21.587Z,98657.88
2019-06-15T03:31:55.060Z,98659.81
2019-06-15T03:34:28.620Z,98656.98
2019-06-15T03:37:02.001Z,98665.41
2019-06-15T03:39:35.076Z,98659.46
2019-06-15T03:42:08.255Z,98657.48
2019-06-15T03:44:41.557Z,98659.77
2019-06-15T03:47:15.281Z,98669.01
2019-06-15T03:49:49.653Z,98655.78
2019-06-15T03:52:22.547Z,98661.24
2019-06-15T03:54:55.988Z,98667.51
2019-06-15T03:57:29.247Z,98667.70
2019-06-15T04:00:02.578Z,98673.00
2019-06-15T04:02:35.570Z,98678.63
2019-06-15T04:05:08.667Z,98680.27
2019-06-15T04:07:42.690Z,98674.85
2019-06-15T04:10:17.137Z,98670.36
2019-06-15T04:12:49.746Z,98676.98
2019-06-15T04:15:23.000Z,98677.69
2019-06-15T04:17:56.605Z,98686.16
2019-06-15T04:20:30.293Z,98686.44
2019-06-15T04:23:04.005Z,98691.06
2019-06-15T04:25:37.992Z,98691.23
2019-06-15T04:28:11.767Z,98693.56
2019-06-15T04:30:45.708Z,98699.84
2019-06-15T04:33:19.287Z,98699.84
2019-06-15T04:35:52.387Z,98695.03
2019-06-15T04:38:26.153Z,98700.85
2019-06-15T04:41:01.650Z,98686.00
2019-06-15T04:43:34.865Z,98673.11
2019-06-15T04:46:08.478Z,98669.80
2019-06-15T04:48:42.172Z,98669.80
2019-06-15T04:51:15.953Z,98669.80
2019-06-15T04:53:49.469Z,98669.14
2019-06-15T04:56:22.973Z,98681.73
2019-06-15T04:58:56.260Z,98681.23
2019-06-15T05:01:29.838Z,98681.72
2019-06-15T05:04:03.714Z,98691.67
2019-06-15T05:06:39.608Z,98690.97
2019-06-15T05:09:13.772Z,98696.41
2019-06-15T05:11:47.111Z,98697.87
2019-06-15T05:14:20.858Z,98697.17
2019-06-15T05:16:54.228Z,98699.15
2019-06-15T05:19:28.567Z,98706.04
2019-06-15T05:22:02.588Z,98705.98
2019-06-15T05:24:36.771Z,98704.28
2019-06-15T05:27:10.557Z,98706.20
2019-06-15T05:29:44.741Z,98704.98
2019-06-15T05:32:18.344Z,98714.05
2019-06-15T05:34:51.879Z,98711.14
2019-06-15T05:37:25.546Z,98711.39
2019-06-15T05:39:59.508Z,98710.79
2019-06-15T05:42:33.079Z,98700.64
2019-06-15T05:45:07.559Z,98714.52
2019-06-15T05:47:41.402Z,98712.41
2019-06-15T05:50:15.774Z,98719.00
2019-06-15T05:52:49.881Z,98723.22
2019-06-15T05:55:23.948Z,98718.41
2019-06-15T05:57:58.973Z,98714.97
2019-06-15T06:00:32.781Z,98704.08
2019-06-15T06:03:06.410Z,98702.70
2019-06-15T06:05:40.371Z,98703.92
2019-06-15T06:08:22.714Z,98701.67
2019-06-15T06:10:57.151Z,98707.16
2019-06-15T06:13:31.213Z,98711.27
2019-06-15T06:16:05.618Z,98708.99
2019-06-15T06:18:39.351Z,98703.58
2019-06-15T06:21:13.216Z,98711.33
2019-06-15T06:23:47.846Z,98708.58
2019-06-15T06:26:21.853Z,98709.98
2019-06-15T06:28:57.460Z,98706.91
2019-06-15T06:31:30.662Z,98710.81
2019-06-15T06:34:05.022Z,98720.51
2019-06-15T06:36:39.696Z,98724.08
2019-06-15T06:39:15.265Z,98723.47
2019-06-15T06:41:49.594Z,98729.58
2019-06-15T06:44:23.706Z,98730.11
2019-06-15T06:46:57.619Z,98731.69
2019-06-15T06:49:32.526Z,98740.59
2019-06-15T06:52:06.190Z,98737.83
2019-06-15T06:54:40.251Z,98741.95
2019-06-15T06:57:14.881Z,98738.04
2019-06-15T06:59:51.205Z,98747.18
2019-06-15T07:02:26.689Z,98749.42
2019-06-15T07:05:01.754Z,98744.78
2019-06-15T07:07:35.731Z,98742.59
2019-06-15T07:10:11.172Z,98747.91
2019-06-15T07:12:46.296Z,98747.42
2019-06-15T07:15:22.476Z,98739.84
2019-06-15T07:17:58.501Z,98739.56
2019-06-15T07:20:32.169Z,98728.84
2019-06-15T07:23:05.563Z,98723.77
2019-06-15T07:25:39.338Z,98726.88
2019-06-15T07:28:14.036Z,98725.66
2019-06-15T07:30:49.568Z,98724.95
2019-06-15T07:33:24.245Z,98719.94
2019-06-15T07:35:59.551Z,98720.39
2019-06-15T07:38:38.039Z,98718.81
2019-06-15T07:41:13.854Z,98710.05
2019-06-15T07:43:49.864Z,98708.30
2019-06-15T07:46:29.032Z,98699.67
2019-06-15T07:49:05.432Z,98700.35
2019-06-15T07:51:39.496Z,98707.09
2019-06-15T07:54:13.732Z,98719.22
2019-06-15T07:56:50.269Z,98722.38
2019-06-15T07:59:24.331Z,98718.70
2019-06-15T08:01:59.751Z,98721.69
2019-06-15T08:04:34.851Z,98714.69
2019-06-15T08:07:10.041Z,98720.95
2019-06-15T08:09:45.139Z,98718.45
2019-06-15T08:12:19.056Z,98714.73
2019-06-15T08:14:52.899Z,98713.14
2019-06-15T08:17:29.468Z,98712.61
2019-06-15T08:20:06.557Z,98716.26
2019-06-15T08:22:39.856Z,98719.62
2019-06-15T08:25:15.034Z,98718.91
2019-06-15T08:27:49.254Z,98719.03
2019-06-15T08:30:35.638Z,98724.05
2019-06-15T08:33:11.697Z,98721.88
2019-06-15T08:35:46.006Z,98719.68
2019-06-15T08:38:24.403Z,98722.51
2019-06-15T08:40:58.286Z,98722.18
2019-06-15T08:43:32.888Z,98716.40
2019-06-15T08:46:08.836Z,98717.22
2019-06-15T08:48:44.559Z,98721.52
2019-06-15T08:51:19.100Z,98721.50
2019-06-15T08:53:53.945Z,98728.07
2019-06-15T08:56:29.225Z,98721.85
2019-06-15T08:59:05.606Z,98728.66
2019-06-15T09:01:41.209Z,98719.56
2019-06-15T09:04:14.716Z,98721.72
2019-06-15T09:06:48.368Z,98716.88
2019-06-15T09:09:22.269Z,98724.30
2019-06-15T09:11:55.590Z,98713.75
2019-06-15T09:14:29.606Z,98710.95
2019-06-15T09:17:04.642Z,98711.31
2019-06-15T09:19:38.654Z,98706.09
2019-06-15T09:22:13.042Z,98713.16
2019-06-15T09:24:48.465Z,98716.00
2019-06-15T09:27:25.681Z,98709.86
2019-06-15T09:30:00.595Z,98707.05
2019-06-15T09:32:38.205Z,98705.77
2019-06-15T09:35:12.319Z,98703.50
2019-06-15T09:37:46.952Z,98715.44
2019-06-15T09:40:21.691Z,98718.02
2019-06-15T09:42:55.683Z,98722.58
2019-06-15T09:45:33.132Z,98729.17
2019-06-15T09:48:07.273Z,98726.75
2019-06-15T09:51:00.713Z,98720.12
2019-06-15T09:53:33.963Z,98730.52
2019-06-15T09:56:14.297Z,98731.26
2019-06-15T09:58:46.948Z,98733.13
2019-06-15T10:01:23.040Z,98724.58
2019-06-15T10:03:57.646Z,98729.75
2019-06-15T10:06:32.423Z,98732.70
2019-06-15T10:09:08.738Z,98730.52
2019-06-15T10:11:44.075Z,98726.73
2019-06-15T10:14:18.213Z,98715.83
2019-06-15T10:16:52.073Z,98728.35
2019-06-15T10:19:27.625Z,98724.01
2019-06-15T10:22:01.576Z,98724.73
2019-06-15T10:24:35.076Z,98726.09
2019-06-15T10:27:08.216Z,98722.61
2019-06-15T10:29:43.105Z,98720.16
2019-06-15T10:32:21.168Z,98730.15
2019-06-15T10:34:55.338Z,98731.44
2019-06-15T10:37:30.820Z,98722.14
2019-06-15T10:40:05.249Z,98722.13
2019-06-15T10:42:39.475Z,98723.74
2019-06-15T10:45:15.001Z,98711.20
2019-06-15T10:47:49.757Z,98710.92
2019-06-15T10:50:23.904Z,98712.45
2019-06-15T10:52:57.763Z,98711.17
2019-06-15T10:55:31.824Z,98711.34
2019-06-15T10:58:05.085Z,98707.70
2019-06-15T11:00:39.590Z,98709.20
2019-06-15T11:03:13.234Z,98708.43
2019-06-15T11:05:47.112Z,98715.48
2019-06-15T11:08:20.883Z,98706.91
2019-06-15T11:11:10.405Z,98708.83
2019-06-15T11:13:44.368Z,98715.15
2019-06-15T11:16:18.722Z,98704.00
2019-06-15T11:18:52.535Z,98711.97
2019-06-15T11:21:31.709Z,98709.91
2019-06-15T11:24:05.047Z,98713.96
2019-06-15T11:26:41.855Z,98715.34
2019-06-15T11:29:13.761Z,98711.13
2019-06-15T11:31:47.285Z,98711.21
2019-06-15T11:34:20.374Z,98698.36
2019-06-15T11:36:55.498Z,98706.26
2019-06-15T11:39:28.530Z,98709.16
2019-06-15T11:42:02.893Z,98687.82
2019-06-15T11:44:37.051Z,98692.83
2019-06-15T11:47:11.813Z,98692.08
2019-06-15T11:49:46.371Z,98691.77
2019-06-15T11:52:22.143Z,98688.78
2019-06-15T11:54:59.322Z,98697.99
2019-06-15T11:57:35.976Z,98693.99
2019-06-15T12:00:10.209Z,98697.06
2019-06-15T12:02:49.086Z,98691.42
2019-06-15T12:05:28.421Z,98688.53
2019-06-15T12:08:20.501Z,98681.74
2019-06-15T12:10:56.688Z,98689.88
2019-06-15T12:13:30.525Z,98691.56
2019-06-15T12:16:05.336Z,98686.26
2019-06-15T12:18:39.358Z,98681.26
2019-06-15T12:21:14.223Z,98691.66
2019-06-15T12:23:48.146Z,98693.53
2019-06-15T12:26:24.526Z,98687.58
2019-06-15T12:29:00.467Z,98683.76
2019-06-15T12:31:34.744Z,98676.24
2019-06-15T12:34:13.621Z,98671.03
2019-06-15T12:36:47.505Z,98674.52
2019-06-15T12:39:21.117Z,98681.67
2019-06-15T12:41:54.924Z,98680.42
2019-06-15T12:44:28.466Z,98677.44
2019-06-15T12:47:04.564Z,98682.44
2019-06-15T12:49:38.380Z,98670.80
2019-06-15T12:52:13.859Z,98681.50
2019-06-15T12:54:47.275Z,98676.36
2019-06-15T12:57:20.500Z,98673.27
2019-06-15T12:59:54.115Z,98682.09
2019-06-15T13:02:27.321Z,98685.97
2019-06-15T13:05:00.941Z,98686.86
2019-06-15T13:07:37.941Z,98683.88
2019-06-15T13:10:12.083Z,98675.77
2019-06-15T13:12:46.723Z,98676.64
2019-06-15T13:15:22.593Z,98683.16
2019-06-15T13:17:55.821Z,98681.63
2019-06-15T13:20:30.768Z,98670.64
2019-06-15T13:23:04.327Z,98672.70
2019-06-15T13:25:43.180Z,98674.17
2019-06-15T13:28:16.803Z,98668.72
2019-06-15T13:30:52.375Z,98666.28
2019-06-15T13:33:26.667Z,98670.20
2019-06-15T13:36:01.501Z,98666.42
2019-06-15T13:38:35.246Z,98666.16
2019-06-15T13:41:08.763Z,98664.14
2019-06-15T13:43:43.281Z,98664.14
2019-06-15T13:46:17.170Z,98667.31
2019-06-15T13:48:51.446Z,98666.61
2019-06-15T13:51:25.886Z,98664.30
2019-06-15T13:53:59.515Z,98665.02
2019-06-15T13:56:34.259Z,98657.95
2019-06-15T13:59:11.532Z,98654.36
2019-06-15T14:01:45.692Z,98651.97
2019-06-15T14:04:22.754Z,98653.22
2019-06-15T14:06:57.444Z,98653.09
2019-06-15T14:09:31.818Z,98653.16
2019-06-15T14:12:07.280Z,98657.18
2019-06-15T14:14:41.725Z,98661.47
2019-06-15T14:17:16.399Z,98659.01
2019-06-15T14:19:51.896Z,98648.68
2019-06-15T14:22:26.740Z,98665.01
2019-06-15T14:25:40.855Z,98662.31
2019-06-15T14:28:16.573Z,98662.53
2019-06-15T14:30:51.440Z,98658.21
2019-06-15T14:33:32.354Z,98658.75
2019-06-15T14:36:08.262Z,98660.39
2019-06-15T14:38:42.941Z,98659.86
2019-06-15T14:41:20.518Z,98662.24
2019-06-15T14:43:54.765Z,98659.80
2019-06-15T14:46:29.346Z,98650.58
2019-06-15T14:49:05.123Z,98650.86
2019-06-15T14:51:38.789Z,98644.61
2019-06-15T14:54:13.245Z,98639.67
2019-06-15T14:56:47.311Z,98633.95
2019-06-15T14:59:21.535Z,98636.98
2019-06-15T15:02:09.512Z,98631.26
2019-06-15T15:04:32.576Z,98629.61
2019-06-15T15:07:06.954Z,98623.06
2019-06-15T15:09:49.715Z,98619.75
2019-06-15T15:12:22.332Z,98617.56
2019-06-15T15:14:57.086Z,98619.23
2019-06-15T15:17:31.646Z,98621.13
2019-06-15T15:20:07.124Z,98611.60
2019-06-15T15:22:41.917Z,98623.56
2019-06-15T15:25:16.974Z,98616.20
2019-06-15T15:27:52.016Z,98617.36
2019-06-15T15:30:38.500Z,98615.94
2019-06-15T15:33:12.618Z,98613.13
2019-06-15T15:35:46.709Z,98616.94
2019-06-15T15:38:21.685Z,98617.55
2019-06-15T15:40:57.893Z,98611.25
2019-06-15T15:43:31.625Z,98615.16
2019-06-15T15:46:07.182Z,98612.63
2019-06-15T15:48:40.819Z,98612.10
2019-06-15T15:51:17.101Z,98611.67
2019-06-15T15:53:53.258Z,98608.56
2019-06-15T15:56:28.139Z,98609.07
2019-06-15T15:59:06.806Z,98606.66
2019-06-15T16:01:40.282Z,98611.72
2019-06-15T16:04:13.313Z,98607.32
2019-06-15T16:06:47.315Z,98610.92
2019-06-15T16:09:20.760Z,98606.94
2019-06-15T16:11:56.589Z,98604.38
2019-06-15T16:14:31.216Z,98607.01
2019-06-15T16:17:06.695Z,98601.67
2019-06-15T16:19:41.393Z,98601.45
2019-06-15T16:22:15.318Z,98600.18
2019-06-15T16:24:49.366Z,98610.73
2019-06-15T16:27:23.607Z,98606.64
2019-06-15T16:29:57.455Z,98602.05
2019-06-15T16:32:32.064Z,98602.47
2019-06-15T16:35:09.209Z,98599.36
2019-06-15T16:37:44.263Z,98602.24
2019-06-15T16:40:26.774Z,98610.45
2019-06-15T16:43:00.570Z,98611.73
2019-06-15T16:45:35.327Z,98615.73
2019-06-15T16:48:09.164Z,98609.58
2019-06-15T16:50:42.940Z,98618.02
2019-06-15T16:53:18.687Z,98614.18
2019-06-15T16:55:53.055Z,98610.95
2019-06-15T16:58:27.251Z,98611.91
2019-06-15T17:01:00.877Z,98617.03
2019-06-15T17:03:36.687Z,98613.98
2019-06-15T17:06:10.624Z,98608.61
2019-06-15T17:08:46.534Z,98609.53
2019-06-15T17:11:20.334Z,98620.13
2019-06-15T17:13:56.303Z,98616.08
2019-06-15T17:16:30.666Z,98622.83
2019-06-15T17:19:07.107Z,98621.98
2019-06-15T17:21:41.251Z,98614.94
2019-06-15T17:24:17.163Z,98618.46
2019-06-15T17:26:51.770Z,98614.86
2019-06-15T17:29:26.400Z,98611.91
2019-06-15T17:31:59.876Z,98613.50
2019-06-15T17:34:36.347Z,98620.73
2019-06-15T17:37:09.145Z,98619.54
2019-06-15T17:39:43.139Z,98623.02
2019-06-15T17:42:18.379Z,98620.20
2019-06-15T17:44:59.902Z,98620.56
2019-06-15T17:47:33.823Z,98624.13
2019-06-15T17:50:08.905Z,98625.97
2019-06-15T17:52:42.508Z,98627.94
2019-06-15T17:55:17.898Z,98626.41
2019-06-15T17:57:52.436Z,98633.31
2019-06-15T18:00:31.415Z,98633.27
2019-06-15T18:03:06.862Z,98632.11
2019-06-15T18:05:41.195Z,98634.00
2019-06-15T18:08:16.945Z,98634.32
2019-06-15T18:10:50.300Z,98626.65
2019-06-15T18:13:23.793Z,98623.76
2019-06-15T18:16:00.405Z,98622.11
2019-06-15T18:18:42.149Z,98616.97
2019-06-15T18:21:16.367Z,98613.60
2019-06-15T18:23:49.851Z,98606.27
2019-06-15T18:26:23.454Z,98605.75
2019-06-15T18:29:00.241Z,98605.45
2019-06-15T18:31:36.433Z,98609.19
2019-06-15T18:34:16.708Z,98603.79
2019-06-15T18:36:49.355Z,98608.53
2019-06-15T18:39:26.414Z,98598.97
2019-06-15T18:42:00.276Z,98604.86
2019-06-15T18:44:36.654Z,98604.99
2019-06-15T18:47:11.808Z,98601.63
2019-06-15T18:49:47.322Z,98602.55
2019-06-15T18:52:22.241Z,98608.40
2019-06-15T18:54:57.300Z,98609.08
2019-06-15T18:57:36.963Z,98609.23
2019-06-15T19:00:12.018Z,98611.85
2019-06-15T19:02:46.507Z,98614.17
2019-06-15T19:05:19.805Z,98613.29
2019-06-15T19:07:56.588Z,98617.28
2019-06-15T19:10:35.163Z,98616.80
2019-06-15T19:13:09.643Z,98628.05
2019-06-15T19:15:43.288Z,98632.37
2019-06-15T19:18:18.011Z,98632.80
2019-06-15T19:20:53.377Z,98632.91
2019-06-15T19:23:30.220Z,98633.00
2019-06-15T19:26:06.321Z,98639.16
2019-06-15T19:28:41.336Z,98643.11
2019-06-15T19:31:15.708Z,98648.66
2019-06-15T19:33:56.770Z,98654.19
2019-06-15T19:36:29.298Z,98661.27
2019-06-15T19:39:06.164Z,98669.02
2019-06-15T19:41:39.631Z,98666.55
2019-06-15T19:44:13.433Z,98668.56
2019-06-15T19:46:49.210Z,98671.91
2019-06-15T19:49:22.558Z,98672.02
2019-06-15T19:51:57.282Z,98675.99
2019-06-15T19:54:31.346Z,98673.28
2019-06-15T19:57:06.827Z,98682.11
2019-06-15T19:59:41.485Z,98680.88
2019-06-15T20:02:17.146Z,98688.36
2019-06-15T20:05:00.421Z,98690.48
2019-06-15T20:07:26.404Z,98685.84
2019-06-15T20:10:00.081Z,98692.13
2019-06-15T20:12:34.211Z,98693.09
2019-06-15T20:15:08.966Z,98693.66
2019-06-15T20:17:43.002Z,98694.36
2019-06-15T20:20:17.878Z,98695.13
2019-06-15T20:22:51.815Z,98695.11
2019-06-15T20:25:26.902Z,98687.33
2019-06-15T20:28:01.089Z,98688.20
2019-06-15T20:30:37.525Z,98686.06
2019-06-15T20:33:12.097Z,98691.94
2019-06-15T20:35:47.480Z,98681.92
2019-06-15T20:38:21.289Z,98692.55
2019-06-15T20:40:56.603Z,98692.09
2019-06-15T20:43:30.645Z,98696.55
2019-06-15T20:46:06.810Z,98701.42
2019-06-15T20:48:40.435Z,98701.80
2019-06-15T20:51:17.461Z,98711.89
2019-06-15T20:53:51.953Z,98709.61
2019-06-15T20:56:26.618Z,98711.42
2019-06-15T20:59:02.107Z,98700.67
2019-06-15T21:01:37.953Z,98718.00
2019-06-15T21:04:12.155Z,98723.41
2019-06-15T21:06:47.573Z,98726.64
2019-06-15T21:09:20.870Z,98734.46
2019-06-15T21:11:54.337Z,98735.37
2019-06-15T21:14:28.747Z,98737.08
2019-06-15T21:17:03.318Z,98739.45
2019-06-15T21:19:37.313Z,98740.45
2019-06-15T21:22:10.827Z,98743.44
2019-06-15T21:24:46.399Z,98748.64
2019-06-15T21:27:26.893Z,98745.36
2019-06-15T21:30:00.296Z,98746.19
2019-06-15T21:32:36.978Z,98756.20
2019-06-15T21:35:11.763Z,98756.90
2019-06-15T21:37:46.411Z,98762.11
2019-06-15T21:40:23.116Z,98761.64
2019-06-15T21:42:57.780Z,98760.64
2019-06-15T21:45:32.167Z,98757.19
2019-06-15T21:48:07.013Z,98750.41
2019-06-15T21:50:41.108Z,98748.42
2019-06-15T21:53:16.173Z,98751.41
2019-06-15T21:55:50.158Z,98748.78
2019-06-15T21:58:27.198Z,98751.09
2019-06-15T22:01:18.850Z,98752.29
2019-06-15T22:03:52.741Z,98742.85
2019-06-15T22:06:29.071Z,98738.41
2019-06-15T22:09:06.477Z,98748.56
2019-06-15T22:11:40.775Z,98747.59
2019-06-15T22:14:16.997Z,98751.95
2019-06-15T22:16:50.286Z,98746.80
2019-06-15T22:19:26.173Z,98742.69
2019-06-15T22:22:00.860Z,98749.64
2019-06-15T22:24:36.253Z,98744.34
2019-06-15T22:27:10.485Z,98748.16
2019-06-15T22:29:47.231Z,98743.69
2019-06-15T22:32:21.174Z,98746.83
2019-06-15T22:34:56.311Z,98751.48
2019-06-15T22:37:30.718Z,98751.16
2019-06-15T22:40:07.471Z,98755.12
2019-06-15T22:42:40.675Z,98755.28
2019-06-15T22:45:17.237Z,98749.64
2019-06-15T22:47:51.135Z,98752.13
2019-06-15T22:50:24.567Z,98751.63
2019-06-15T22:52:58.500Z,98754.95
2019-06-15T22:55:31.675Z,98757.59
2019-06-15T22:58:06.435Z,98755.77
2019-06-15T23:00:40.441Z,98754.59
2019-06-15T23:03:16.648Z,98755.91
2019-06-15T23:05:49.507Z,98750.42
2019-06-15T23:08:23.050Z,98747.58
2019-06-15T23:10:57.110Z,98748.09
2019-06-15T23:13:31.377Z,98752.20
2019-06-15T23:16:07.359Z,98751.05
2019-06-15T23:18:41.194Z,98748.89
2019-06-15T23:21:20.623Z,98753.86
2019-06-15T23:23:56.313Z,98750.56
2019-06-15T23:26:31.640Z,98749.23
2019-06-15T23:29:06.973Z,98743.59
2019-06-15T23:31:41.081Z,98751.22
2019-06-15T23:34:16.346Z,98751.39
2019-06-15T23:36:57.342Z,98758.31
2019-06-15T23:39:28.457Z,98750.69
2019-06-15T23:42:02.361Z,98750.81
2019-06-15T23:44:36.251Z,98748.81
2019-06-15T23:47:10.207Z,98745.79
2019-06-15T23:49:45.996Z,98743.13
2019-06-15T23:52:19.868Z,98738.97
2019-06-15T23:54:53.572Z,98733.16
2019-06-15T23:57:36.763Z,98730.49
